createdAt,value
2019-01-25T00:01:47.253Z,21.87
2019-01-25T00:04:16.450Z,21.80
2019-01-25T00:06:45.659Z,20.97
2019-01-25T00:09:33.874Z,21.47
2019-01-25T00:12:03.039Z,21.40
2019-01-25T00:14:32.224Z,21.07
2019-01-25T00:19:56.918Z,19.77
2019-01-25T00:22:26.547Z,21.20
2019-01-25T00:24:55.750Z,20.80
2019-01-25T00:27:24.910Z,20.03
2019-01-25T00:29:54.143Z,20.67
2019-01-25T00:32:23.327Z,20.07
2019-01-25T00:34:52.542Z,20.10
2019-01-25T00:37:21.736Z,20.53
2019-01-25T00:39:51.311Z,21.57
2019-01-25T00:42:20.499Z,20.67
2019-01-25T00:44:50.046Z,20.07
2019-01-25T00:47:19.223Z,20.53
2019-01-25T00:49:48.475Z,20.40
2019-01-25T00:52:17.685Z,21.73
2019-01-25T00:54:47.216Z,21.43
2019-01-25T00:57:16.430Z,21.93
2019-01-25T00:59:45.916Z,20.30
2019-01-25T01:02:15.133Z,20.07
2019-01-25T01:04:44.317Z,21.40
2019-01-25T01:07:13.500Z,18.70
2019-01-25T01:09:42.717Z,21.93
2019-01-25T01:12:11.897Z,20.30
2019-01-25T01:14:41.407Z,21.27
2019-01-25T01:17:10.915Z,21.30
2019-01-25T01:19:40.419Z,19.30
2019-01-25T01:22:09.611Z,21.37
2019-01-25T01:24:38.798Z,21.20
2019-01-25T01:27:08.097Z,20.10
2019-01-25T01:29:37.303Z,21.87
2019-01-25T01:32:06.618Z,20.57
2019-01-25T01:34:35.804Z,21.20
2019-01-25T01:37:44.392Z,22.93
2019-01-25T01:40:54.582Z,21.27
2019-01-25T01:43:23.786Z,21.67
2019-01-25T01:45:53.296Z,21.63
2019-01-25T01:48:22.510Z,22.17
2019-01-25T01:50:51.694Z,22.13
2019-01-25T01:53:20.905Z,23.33
2019-01-25T01:55:50.080Z,23.23
2019-01-25T01:58:19.272Z,22.20
2019-01-25T02:00:48.474Z,21.93
2019-01-25T02:03:17.995Z,22.93
2019-01-25T02:05:47.176Z,22.47
2019-01-25T02:08:16.354Z,23.93
2019-01-25T02:10:45.658Z,22.50
2019-01-25T02:13:14.852Z,24.30
2019-01-25T02:15:44.383Z,24.30
2019-01-25T02:18:13.561Z,25.03
2019-01-25T02:20:42.748Z,24.87
2019-01-25T02:23:11.965Z,24.53
2019-01-25T02:28:29.335Z,22.63
2019-01-25T02:30:58.918Z,24.30
2019-01-25T02:33:28.125Z,21.20
2019-01-25T02:35:57.302Z,21.77
2019-01-25T02:38:26.513Z,21.63
2019-01-25T02:41:14.781Z,21.50
2019-01-25T02:43:44.362Z,21.10
2019-01-25T02:46:13.551Z,22.00
2019-01-25T02:48:42.767Z,24.30
2019-01-25T02:51:11.948Z,21.87
2019-01-25T02:53:41.128Z,21.00
2019-01-25T02:56:10.345Z,21.67
2019-01-25T02:58:39.523Z,19.07
2019-01-25T03:01:08.725Z,20.93
2019-01-25T03:03:37.904Z,21.97
2019-01-25T03:06:07.223Z,19.03
2019-01-25T03:08:36.435Z,19.90
2019-01-25T03:11:45.029Z,18.90
2019-01-25T03:14:14.214Z,19.37
2019-01-25T03:16:43.414Z,16.93
2019-01-25T03:19:12.872Z,18.43
2019-01-25T03:22:01.132Z,17.03
2019-01-25T03:24:30.342Z,16.57
2019-01-25T03:26:59.534Z,17.30
2019-01-25T03:29:28.727Z,16.57
2019-01-25T03:32:05.196Z,16.50
2019-01-25T03:34:34.407Z,17.47
2019-01-25T03:37:03.594Z,15.17
2019-01-25T03:39:32.782Z,15.83
2019-01-25T03:42:01.981Z,15.83
2019-01-25T03:44:31.200Z,14.77
2019-01-25T03:47:00.668Z,14.10
2019-01-25T03:49:29.856Z,14.90
2019-01-25T03:52:18.055Z,16.13
2019-01-25T03:54:47.235Z,15.67
2019-01-25T03:57:16.438Z,14.97
2019-01-25T03:59:45.618Z,16.10
2019-01-25T04:02:14.802Z,14.77
2019-01-25T04:04:44.013Z,15.53
2019-01-25T04:07:13.486Z,14.67
2019-01-25T04:09:42.694Z,13.10
2019-01-25T04:12:12.193Z,13.90
2019-01-25T04:14:41.393Z,14.23
2019-01-25T04:17:10.892Z,13.43
2019-01-25T04:19:40.397Z,14.73
2019-01-25T04:22:09.582Z,14.67
2019-01-25T04:24:38.789Z,15.20
2019-01-25T04:27:07.969Z,14.10
2019-01-25T04:29:37.171Z,12.63
2019-01-25T04:32:06.369Z,14.07
2019-01-25T04:34:35.553Z,14.10
2019-01-25T04:37:05.198Z,13.83
2019-01-25T04:39:34.380Z,11.97
2019-01-25T04:42:03.601Z,12.27
2019-01-25T04:44:32.791Z,12.20
2019-01-25T04:47:01.976Z,12.67
2019-01-25T04:50:10.565Z,12.43
2019-01-25T04:52:39.869Z,12.43
2019-01-25T04:55:29.571Z,12.23
2019-01-25T04:58:18.659Z,12.20
2019-01-25T05:00:48.300Z,12.03
2019-01-25T05:03:17.488Z,12.53
2019-01-25T05:08:42.356Z,12.43
2019-01-25T05:11:30.640Z,11.83
2019-01-25T05:14:18.759Z,12.57
2019-01-25T05:16:47.959Z,10.60
2019-01-25T05:19:17.142Z,11.90
2019-01-25T05:21:46.357Z,10.97
2019-01-25T05:24:15.547Z,12.53
2019-01-25T05:26:44.736Z,12.23
2019-01-25T05:29:13.990Z,12.97
2019-01-25T05:31:43.192Z,10.87
2019-01-25T05:34:12.406Z,12.43
2019-01-25T05:36:41.584Z,12.07
2019-01-25T05:39:11.138Z,10.80
2019-01-25T05:41:40.336Z,11.07
2019-01-25T05:44:09.515Z,11.77
2019-01-25T05:46:38.727Z,12.20
2019-01-25T05:49:26.870Z,11.50
2019-01-25T05:52:14.982Z,11.90
2019-01-25T05:54:44.197Z,10.93
2019-01-25T05:57:32.457Z,11.47
2019-01-25T06:02:37.662Z,13.00
2019-01-25T06:05:07.155Z,11.50
2019-01-25T06:07:36.720Z,12.33
2019-01-25T06:10:45.971Z,11.93
2019-01-25T06:13:15.156Z,11.97
2019-01-25T06:15:44.614Z,12.73
2019-01-25T06:18:13.816Z,11.10
2019-01-25T06:20:43.017Z,12.80
2019-01-25T06:23:12.217Z,11.43
2019-01-25T06:25:41.409Z,10.53
2019-01-25T06:28:10.628Z,12.60
2019-01-25T06:30:39.832Z,12.80
2019-01-25T06:33:09.044Z,12.37
2019-01-25T06:35:38.233Z,12.90
2019-01-25T06:38:07.439Z,12.77
2019-01-25T06:43:24.830Z,13.37
2019-01-25T06:45:54.025Z,14.07
2019-01-25T06:48:23.291Z,12.50
2019-01-25T06:53:27.504Z,13.77
2019-01-25T06:55:56.707Z,13.40
2019-01-25T06:58:44.822Z,13.87
2019-01-25T07:01:32.962Z,13.80
2019-01-25T07:04:02.149Z,13.87
2019-01-25T07:06:31.357Z,14.33
2019-01-25T07:09:00.543Z,13.03
2019-01-25T07:11:29.746Z,12.83
2019-01-25T07:13:58.929Z,12.03
2019-01-25T07:16:28.134Z,14.00
2019-01-25T07:18:57.320Z,13.73
2019-01-25T07:21:26.796Z,13.63
2019-01-25T07:23:55.979Z,13.27
2019-01-25T07:26:25.151Z,13.60
2019-01-25T07:28:54.373Z,14.10
2019-01-25T07:31:23.583Z,13.63
2019-01-25T07:33:52.788Z,14.67
2019-01-25T07:36:22.528Z,14.03
2019-01-25T07:38:51.785Z,13.03
2019-01-25T07:41:21.011Z,12.77
2019-01-25T07:43:50.218Z,13.13
2019-01-25T07:46:19.404Z,13.17
2019-01-25T07:48:48.609Z,13.50
2019-01-25T07:51:17.788Z,12.67
2019-01-25T07:53:47.106Z,14.00
2019-01-25T07:56:16.506Z,13.10
2019-01-25T07:58:45.664Z,13.67
2019-01-25T08:01:14.920Z,13.13
2019-01-25T08:03:44.084Z,12.77
2019-01-25T08:06:13.301Z,12.93
2019-01-25T08:08:42.753Z,12.87
2019-01-25T08:11:11.988Z,12.70
2019-01-25T08:13:41.227Z,13.60
2019-01-25T08:16:10.434Z,13.77
2019-01-25T08:18:39.638Z,13.40
2019-01-25T08:21:08.846Z,14.57
2019-01-25T08:23:56.976Z,14.20
2019-01-25T08:26:26.180Z,13.07
2019-01-25T08:28:55.386Z,15.63
2019-01-25T08:31:24.793Z,15.10
2019-01-25T08:33:54.159Z,14.23
2019-01-25T08:36:23.488Z,14.33
2019-01-25T08:38:52.729Z,17.23
2019-01-25T08:41:21.956Z,15.50
2019-01-25T08:43:51.205Z,15.53
2019-01-25T08:46:20.376Z,14.60
2019-01-25T08:48:49.582Z,14.10
2019-01-25T08:51:18.761Z,15.53
2019-01-25T08:53:47.965Z,15.60
2019-01-25T08:56:17.139Z,14.57
2019-01-25T08:58:46.889Z,15.03
2019-01-25T09:01:16.052Z,15.37
2019-01-25T09:03:45.244Z,16.23
2019-01-25T09:06:14.776Z,17.03
2019-01-25T09:08:43.969Z,17.13
2019-01-25T09:11:13.298Z,16.00
2019-01-25T09:13:42.477Z,14.93
2019-01-25T09:16:11.685Z,15.30
2019-01-25T09:18:40.869Z,15.73
2019-01-25T09:21:10.075Z,16.13
2019-01-25T09:23:39.255Z,15.80
2019-01-25T09:26:08.572Z,15.50
2019-01-25T09:28:37.752Z,14.07
2019-01-25T09:31:07.264Z,17.00
2019-01-25T09:33:36.771Z,15.73
2019-01-25T09:36:05.954Z,16.33
2019-01-25T09:38:35.137Z,15.13
2019-01-25T09:44:00.290Z,16.97
2019-01-25T09:46:30.199Z,16.33
2019-01-25T09:49:00.404Z,16.00
2019-01-25T09:51:29.594Z,17.07
2019-01-25T09:53:58.797Z,15.40
2019-01-25T09:56:28.323Z,15.30
2019-01-25T09:58:58.367Z,16.43
2019-01-25T10:01:27.944Z,16.43
2019-01-25T10:03:57.132Z,15.83
2019-01-25T10:06:26.352Z,16.97
2019-01-25T10:08:55.534Z,16.67
2019-01-25T10:11:43.748Z,17.03
2019-01-25T10:14:13.245Z,14.20
2019-01-25T10:16:42.424Z,16.67
2019-01-25T10:19:11.618Z,16.93
2019-01-25T10:21:40.793Z,16.50
2019-01-25T10:24:29.074Z,14.97
2019-01-25T10:26:58.634Z,15.17
2019-01-25T10:29:28.135Z,15.40
2019-01-25T10:31:57.348Z,15.17
2019-01-25T10:34:26.564Z,14.97
2019-01-25T10:36:55.746Z,15.87
2019-01-25T10:39:24.984Z,15.63
2019-01-25T10:41:54.167Z,15.60
2019-01-25T10:44:23.379Z,17.80
2019-01-25T10:46:52.581Z,14.40
2019-01-25T10:49:22.128Z,16.97
2019-01-25T10:51:51.336Z,15.33
2019-01-25T10:54:20.828Z,15.83
2019-01-25T10:56:50.028Z,15.47
2019-01-25T10:59:19.209Z,17.57
2019-01-25T11:01:48.812Z,17.63
2019-01-25T11:04:18.009Z,16.37
2019-01-25T11:06:47.573Z,17.03
2019-01-25T11:09:16.754Z,16.87
2019-01-25T11:11:46.340Z,14.27
2019-01-25T11:14:15.520Z,14.83
2019-01-25T11:16:44.720Z,13.30
2019-01-25T11:19:13.911Z,15.77
2019-01-25T11:21:43.111Z,14.17
2019-01-25T11:24:12.297Z,14.97
2019-01-25T11:26:41.523Z,11.67
2019-01-25T11:29:10.728Z,14.53
2019-01-25T11:31:39.941Z,14.20
2019-01-25T11:34:09.155Z,14.10
2019-01-25T11:36:38.335Z,11.10
2019-01-25T11:39:49.358Z,15.17
2019-01-25T11:42:18.658Z,13.57
2019-01-25T11:44:47.873Z,14.97
2019-01-25T11:47:17.063Z,15.33
2019-01-25T11:49:46.310Z,13.30
2019-01-25T11:52:15.823Z,14.90
2019-01-25T11:54:45.036Z,14.20
2019-01-25T11:57:14.665Z,14.53
2019-01-25T11:59:43.901Z,14.97
2019-01-25T12:02:13.089Z,14.37
2019-01-25T12:04:42.308Z,13.20
2019-01-25T12:07:11.952Z,12.37
2019-01-25T12:09:41.169Z,11.83
2019-01-25T12:12:10.371Z,12.73
2019-01-25T12:14:39.559Z,12.93
2019-01-25T12:17:08.927Z,12.57
2019-01-25T12:19:38.106Z,11.73
2019-01-25T12:22:07.326Z,11.80
2019-01-25T12:24:36.513Z,11.77
2019-01-25T12:27:05.725Z,12.57
2019-01-25T12:29:34.901Z,13.50
2019-01-25T12:32:04.234Z,12.13
2019-01-25T12:34:33.417Z,12.47
2019-01-25T12:37:04.724Z,12.07
2019-01-25T12:39:33.893Z,12.60
2019-01-25T12:42:03.101Z,12.07
2019-01-25T12:44:32.310Z,12.33
2019-01-25T12:47:01.510Z,12.93
2019-01-25T12:49:30.723Z,11.23
2019-01-25T12:55:13.011Z,11.57
2019-01-25T12:57:42.212Z,11.67
2019-01-25T13:08:59.932Z,10.87
2019-01-25T13:11:29.142Z,12.50
2019-01-25T13:13:58.327Z,10.50
2019-01-25T13:16:27.537Z,10.77
2019-01-25T13:18:56.730Z,11.57
2019-01-25T13:21:26.320Z,10.03
2019-01-25T13:23:55.507Z,11.43
2019-01-25T13:26:25.020Z,11.80
2019-01-25T13:28:54.232Z,12.23
2019-01-25T13:31:23.521Z,11.00
2019-01-25T13:33:52.789Z,12.50
2019-01-25T13:36:22.036Z,12.40
2019-01-25T13:38:51.942Z,12.40
2019-01-25T13:41:21.464Z,13.20
2019-01-25T13:43:50.794Z,11.60
2019-01-25T13:49:08.183Z,10.97
2019-01-25T13:51:37.365Z,10.50
2019-01-25T13:54:07.802Z,9.97
2019-01-25T13:56:37.488Z,11.63
2019-01-25T13:59:07.916Z,10.20
2019-01-25T14:01:37.942Z,9.77
2019-01-25T14:04:07.152Z,10.63
2019-01-25T14:06:36.328Z,11.83
2019-01-25T14:09:46.734Z,11.63
2019-01-25T14:12:15.937Z,11.57
2019-01-25T14:14:45.420Z,11.67
2019-01-25T14:17:14.604Z,11.27
2019-01-25T14:19:43.790Z,12.47
2019-01-25T14:22:13.006Z,12.13
2019-01-25T14:24:42.198Z,12.17
2019-01-25T14:27:11.376Z,12.40
2019-01-25T14:29:40.582Z,12.83
2019-01-25T14:32:10.106Z,12.83
2019-01-25T14:34:39.343Z,13.10
2019-01-25T14:37:08.525Z,13.03
2019-01-25T14:39:38.005Z,13.03
2019-01-25T14:42:07.224Z,12.83
2019-01-25T14:44:36.408Z,13.20
2019-01-25T14:47:05.595Z,12.70
2019-01-25T14:49:34.800Z,13.40
2019-01-25T14:52:04.081Z,13.57
2019-01-25T14:54:33.277Z,13.77
2019-01-25T14:57:02.511Z,12.90
2019-01-25T14:59:31.700Z,13.07
2019-01-25T15:02:00.891Z,12.80
2019-01-25T15:04:30.106Z,11.87
2019-01-25T15:06:59.292Z,11.73
2019-01-25T15:09:28.483Z,11.33
2019-01-25T15:12:16.781Z,10.57
2019-01-25T15:14:46.327Z,10.13
2019-01-25T15:17:15.539Z,10.70
2019-01-25T15:19:44.831Z,8.70
2019-01-25T15:22:14.003Z,9.40
2019-01-25T15:24:43.186Z,8.07
2019-01-25T15:27:12.381Z,9.10
2019-01-25T15:38:09.587Z,7.27
2019-01-25T15:40:38.767Z,6.47
2019-01-25T15:43:07.963Z,7.67
2019-01-25T15:45:37.172Z,7.53
2019-01-25T15:48:06.485Z,7.37
2019-01-25T15:50:35.767Z,7.23
2019-01-25T15:53:05.155Z,7.50
2019-01-25T15:55:34.367Z,7.47
2019-01-25T15:58:03.565Z,7.40
2019-01-25T16:00:32.929Z,8.03
2019-01-25T16:03:02.530Z,6.77
2019-01-25T16:05:31.779Z,7.07
2019-01-25T16:08:01.327Z,7.23
2019-01-25T16:10:30.707Z,7.43
2019-01-25T16:12:59.915Z,7.00
2019-01-25T16:15:31.372Z,7.73
2019-01-25T16:18:00.580Z,7.40
2019-01-25T16:20:29.911Z,8.13
2019-01-25T16:22:59.591Z,7.60
2019-01-25T16:25:31.115Z,7.60
2019-01-25T16:28:00.317Z,7.47
2019-01-25T16:33:40.146Z,7.00
2019-01-25T16:36:09.327Z,7.23
2019-01-25T16:38:38.565Z,7.53
2019-01-25T16:41:07.747Z,7.93
2019-01-25T16:43:36.948Z,8.27
2019-01-25T16:46:06.184Z,8.37
2019-01-25T16:48:35.391Z,8.00
2019-01-25T16:51:04.895Z,8.17
2019-01-25T16:53:34.089Z,8.27
2019-01-25T16:56:03.272Z,8.60
2019-01-25T16:58:32.479Z,8.67
2019-01-25T17:01:01.993Z,8.53
2019-01-25T17:03:31.200Z,9.70
2019-01-25T17:06:00.410Z,8.93
2019-01-25T17:08:29.997Z,8.43
2019-01-25T17:10:59.211Z,8.60
2019-01-25T17:13:28.492Z,10.23
2019-01-25T17:15:57.728Z,8.37
2019-01-25T17:18:26.921Z,8.77
2019-01-25T17:20:56.125Z,9.27
2019-01-25T17:23:25.691Z,8.80
2019-01-25T17:25:55.051Z,8.73
2019-01-25T17:28:24.293Z,8.87
2019-01-25T17:30:53.504Z,9.47
2019-01-25T17:33:22.690Z,8.43
2019-01-25T17:35:52.210Z,8.93
2019-01-25T17:38:21.389Z,9.27
2019-01-25T17:40:50.640Z,9.03
2019-01-25T17:43:19.872Z,7.93
2019-01-25T17:45:49.093Z,9.00
2019-01-25T17:48:18.388Z,8.43
2019-01-25T17:50:47.987Z,9.13
2019-01-25T17:53:17.182Z,9.43
2019-01-25T17:55:46.392Z,8.90
2019-01-25T17:58:16.299Z,8.43
2019-01-25T18:03:28.097Z,8.73
2019-01-25T18:05:57.487Z,8.70
2019-01-25T18:08:26.748Z,9.33
2019-01-25T18:10:55.948Z,8.23
2019-01-25T18:13:25.128Z,8.30
2019-01-25T18:15:54.348Z,7.73
2019-01-25T18:18:23.525Z,8.10
2019-01-25T18:20:52.737Z,7.67
2019-01-25T18:23:21.921Z,8.03
2019-01-25T18:26:11.702Z,8.83
2019-01-25T18:28:55.426Z,8.10
2019-01-25T18:31:25.866Z,7.80
2019-01-25T18:33:55.397Z,8.10
2019-01-25T18:36:24.601Z,8.57
2019-01-25T18:38:53.792Z,7.30
2019-01-25T18:41:22.997Z,7.00
2019-01-25T18:43:52.208Z,6.73
2019-01-25T18:46:21.413Z,7.53
2019-01-25T18:48:50.995Z,7.20
2019-01-25T18:51:20.206Z,7.27
2019-01-25T18:53:49.395Z,7.30
2019-01-25T18:56:20.175Z,7.43
2019-01-25T18:58:49.394Z,6.63
2019-01-25T19:01:18.574Z,6.27
2019-01-25T19:03:48.175Z,7.13
2019-01-25T19:06:17.362Z,8.47
2019-01-25T19:08:46.572Z,8.13
2019-01-25T19:11:16.481Z,7.77
2019-01-25T19:13:45.701Z,8.37
2019-01-25T19:16:14.902Z,8.30
2019-01-25T19:18:44.113Z,8.33
2019-01-25T19:21:13.285Z,9.17
2019-01-25T19:23:42.629Z,9.00
2019-01-25T19:26:11.838Z,8.27
2019-01-25T19:28:41.054Z,8.27
2019-01-25T19:31:10.575Z,8.63
2019-01-25T19:33:40.079Z,8.53
2019-01-25T19:36:09.279Z,7.63
2019-01-25T19:38:38.522Z,8.93
2019-01-25T19:41:07.757Z,8.40
2019-01-25T19:46:12.561Z,8.63
2019-01-25T19:48:41.764Z,8.83
2019-01-25T19:51:11.412Z,8.83
2019-01-25T19:53:40.618Z,9.10
2019-01-25T19:56:09.805Z,8.67
2019-01-25T19:58:41.941Z,8.80
2019-01-25T20:01:11.134Z,8.37
2019-01-25T20:03:40.359Z,8.27
2019-01-25T20:06:09.744Z,9.17
2019-01-25T20:08:39.099Z,9.10
2019-01-25T20:11:08.286Z,8.27
2019-01-25T20:13:37.709Z,9.00
2019-01-25T20:16:06.896Z,8.67
2019-01-25T20:18:38.004Z,8.87
2019-01-25T20:21:07.276Z,8.33
2019-01-25T20:23:36.501Z,9.20
2019-01-25T20:26:45.269Z,8.57
2019-01-25T20:29:14.530Z,8.10
2019-01-25T20:32:02.672Z,8.10
2019-01-25T20:34:31.899Z,8.93
2019-01-25T20:37:01.102Z,9.00
2019-01-25T20:39:30.345Z,8.80
2019-01-25T20:42:00.008Z,9.03
2019-01-25T20:44:29.271Z,9.73
2019-01-25T20:46:58.530Z,8.83
2019-01-25T20:52:07.504Z,9.30
2019-01-25T20:54:37.043Z,9.43
2019-01-25T20:57:06.254Z,9.83
2019-01-25T20:59:35.490Z,9.60
2019-01-25T21:02:04.943Z,9.60
2019-01-25T21:04:34.199Z,9.03
2019-01-25T21:07:03.457Z,9.47
2019-01-25T21:09:32.732Z,9.23
2019-01-25T21:12:02.017Z,9.83
2019-01-25T21:14:31.251Z,9.27
2019-01-25T21:17:00.524Z,9.77
2019-01-25T21:19:29.776Z,10.50
2019-01-25T21:21:59.339Z,10.17
2019-01-25T21:24:28.664Z,8.73
2019-01-25T21:26:57.869Z,8.97
2019-01-25T21:29:27.446Z,8.50
2019-01-25T21:31:56.634Z,10.03
2019-01-25T21:34:25.838Z,9.43
2019-01-25T21:36:55.340Z,9.00
2019-01-25T21:39:24.547Z,9.10
2019-01-25T21:41:53.724Z,9.50
2019-01-25T21:44:22.935Z,9.47
2019-01-25T21:46:52.150Z,9.43
2019-01-25T21:49:21.741Z,9.37
2019-01-25T21:52:10.292Z,9.77
2019-01-25T21:54:40.050Z,9.30
2019-01-25T21:57:09.654Z,9.17
2019-01-25T21:59:39.252Z,9.17
2019-01-25T22:02:08.458Z,10.20
2019-01-25T22:04:37.761Z,9.37
2019-01-25T22:07:06.993Z,9.77
2019-01-25T22:09:36.545Z,9.93
2019-01-25T22:12:05.730Z,10.63
2019-01-25T22:14:35.873Z,9.27
2019-01-25T22:17:05.240Z,10.00
2019-01-25T22:19:34.832Z,9.43
2019-01-25T22:25:34.590Z,9.47
2019-01-25T22:28:03.909Z,12.53
2019-01-25T22:30:33.516Z,11.27
2019-01-25T22:33:02.698Z,9.80
2019-01-25T22:35:31.932Z,10.30
2019-01-25T22:38:01.487Z,11.30
2019-01-25T22:40:32.366Z,11.73
2019-01-25T22:43:01.558Z,10.57
2019-01-25T22:45:31.876Z,10.13
2019-01-25T22:48:02.793Z,9.93
2019-01-25T22:50:34.356Z,11.73
2019-01-25T22:53:03.555Z,11.00
2019-01-25T22:55:51.756Z,11.03
2019-01-25T22:58:20.940Z,12.30
2019-01-25T23:01:28.217Z,11.90
2019-01-25T23:04:35.467Z,11.47
2019-01-25T23:07:27.720Z,12.50
2019-01-25T23:10:01.948Z,11.67
2019-01-25T23:12:31.128Z,10.27
2019-01-25T23:15:00.350Z,11.13
2019-01-25T23:17:29.536Z,10.87
2019-01-25T23:19:58.750Z,11.37
2019-01-25T23:22:27.931Z,11.80
2019-01-25T23:24:57.139Z,11.37
2019-01-25T23:27:45.408Z,11.00
2019-01-25T23:30:57.924Z,11.73
2019-01-25T23:33:27.455Z,10.40
2019-01-25T23:35:56.722Z,11.47
2019-01-25T23:38:25.920Z,11.23
2019-01-25T23:40:55.127Z,11.43
2019-01-25T23:43:24.435Z,10.43
2019-01-25T23:45:53.642Z,11.27
2019-01-25T23:48:22.825Z,10.93
2019-01-25T23:50:52.052Z,9.97
2019-01-25T23:53:21.204Z,11.77
2019-01-25T23:55:50.410Z,11.33
2019-01-25T23:58:19.595Z,11.37
